createdAt,value
2019-03-30T00:01:55.320Z,34.87
2019-03-30T00:07:00.990Z,44.00
2019-03-30T00:12:07.148Z,36.33
2019-03-30T00:17:12.722Z,36.13
2019-03-30T00:22:18.895Z,49.13
2019-03-30T00:27:25.115Z,39.37
2019-03-30T00:32:32.558Z,42.07
2019-03-30T00:37:38.463Z,35.50
2019-03-30T00:42:43.915Z,29.00
2019-03-30T00:47:48.756Z,29.50
2019-03-30T00:52:57.312Z,30.63
2019-03-30T00:58:02.401Z,29.33
2019-03-30T01:03:07.081Z,23.97
2019-03-30T01:08:11.582Z,48.00
2019-03-30T01:13:16.363Z,45.27
2019-03-30T01:18:20.917Z,53.53
2019-03-30T01:23:25.534Z,45.73
2019-03-30T01:28:31.716Z,48.50
2019-03-30T01:33:36.255Z,50.17
2019-03-30T01:38:41.112Z,42.30
2019-03-30T01:43:47.301Z,45.53
2019-03-30T01:48:52.119Z,46.33
2019-03-30T01:53:56.774Z,46.13
2019-03-30T01:59:01.436Z,75.33
2019-03-30T02:04:06.030Z,48.73
2019-03-30T02:09:11.807Z,46.97
2019-03-30T02:14:16.551Z,52.40
2019-03-30T02:19:21.296Z,42.23
2019-03-30T02:24:26.035Z,42.63
2019-03-30T02:29:30.881Z,49.03
2019-03-30T02:34:35.528Z,42.93
2019-03-30T02:39:40.281Z,43.17
2019-03-30T02:44:45.006Z,42.17
2019-03-30T02:49:51.288Z,43.47
2019-03-30T02:54:55.841Z,40.47
2019-03-30T03:00:00.567Z,43.13
2019-03-30T03:05:06.750Z,37.70
2019-03-30T03:10:11.487Z,37.37
2019-03-30T03:15:16.356Z,30.93
2019-03-30T03:20:21.063Z,35.03
2019-03-30T03:25:25.921Z,31.00
2019-03-30T03:30:30.559Z,33.67
2019-03-30T03:35:35.304Z,29.33
2019-03-30T03:40:39.938Z,28.90
2019-03-30T03:45:44.579Z,27.90
2019-03-30T03:50:51.464Z,29.23
2019-03-30T03:55:55.972Z,35.80
2019-03-30T04:01:02.244Z,31.80
2019-03-30T04:06:07.051Z,45.30
2019-03-30T04:11:12.731Z,39.87
2019-03-30T04:16:18.194Z,41.03
2019-03-30T04:21:23.002Z,33.50
2019-03-30T04:26:27.747Z,32.77
2019-03-30T04:31:32.391Z,34.13
2019-03-30T04:36:38.367Z,31.67
2019-03-30T04:41:43.110Z,39.23
2019-03-30T04:46:47.846Z,37.20
2019-03-30T04:51:57.766Z,117.33
2019-03-30T04:56:58.867Z,219.03
2019-03-30T05:02:03.713Z,62.00
2019-03-30T05:07:08.451Z,91.07
2019-03-30T05:12:13.293Z,80.60
2019-03-30T05:17:18.248Z,62.67
2019-03-30T05:22:24.113Z,69.80
2019-03-30T05:27:28.969Z,58.50
2019-03-30T05:32:33.806Z,64.27
2019-03-30T05:37:39.754Z,59.93
2019-03-30T05:42:44.520Z,77.00
2019-03-30T05:47:49.470Z,77.93
2019-03-30T05:52:54.315Z,65.90
2019-03-30T05:58:00.006Z,64.00
2019-03-30T06:03:04.725Z,62.63
2019-03-30T06:08:09.566Z,50.90
2019-03-30T06:13:14.483Z,51.03
2019-03-30T06:18:20.141Z,52.03
2019-03-30T06:23:25.123Z,53.37
2019-03-30T06:28:29.869Z,51.70
2019-03-30T06:33:34.803Z,48.60
2019-03-30T06:38:41.890Z,38.00
2019-03-30T06:43:46.767Z,32.30
2019-03-30T06:48:51.516Z,49.50
2019-03-30T06:53:56.251Z,37.33
2019-03-30T06:59:00.988Z,22.97
2019-03-30T07:04:05.735Z,22.03
2019-03-30T07:09:10.578Z,21.80
2019-03-30T07:14:15.420Z,25.47
2019-03-30T07:19:20.164Z,31.33
2019-03-30T07:24:24.815Z,35.17
2019-03-30T07:29:29.861Z,29.77
2019-03-30T07:34:34.739Z,32.73
2019-03-30T07:39:39.546Z,29.03
2019-03-30T07:44:44.343Z,26.63
2019-03-30T07:49:49.570Z,32.10
2019-03-30T07:54:54.147Z,31.53
2019-03-30T07:59:58.872Z,26.20
2019-03-30T08:05:08.551Z,20.63
2019-03-30T08:10:13.453Z,26.53
2019-03-30T08:15:18.591Z,29.60
2019-03-30T08:20:24.204Z,24.90
2019-03-30T08:25:29.012Z,27.83
2019-03-30T08:30:35.098Z,28.43
2019-03-30T08:35:40.115Z,27.93
2019-03-30T08:40:45.213Z,22.73
2019-03-30T08:45:50.422Z,28.60
2019-03-30T08:50:55.070Z,32.10
2019-03-30T08:56:01.551Z,20.73
2019-03-30T09:01:06.297Z,15.73
2019-03-30T09:06:11.139Z,29.10
2019-03-30T09:11:15.997Z,19.73
2019-03-30T09:16:20.729Z,15.47
2019-03-30T09:21:25.474Z,24.37
2019-03-30T09:26:30.435Z,27.83
2019-03-30T09:31:35.373Z,21.43
2019-03-30T09:36:40.177Z,40.50
2019-03-30T09:41:44.958Z,42.03
2019-03-30T09:46:50.783Z,14.10
2019-03-30T09:51:55.572Z,26.10
2019-03-30T09:57:00.337Z,26.07
2019-03-30T10:02:05.159Z,25.20
2019-03-30T10:07:09.800Z,25.40
2019-03-30T10:12:14.548Z,53.33
2019-03-30T10:17:19.299Z,17.13
2019-03-30T10:22:24.055Z,17.20
2019-03-30T10:27:28.775Z,25.20
2019-03-30T10:32:33.626Z,20.57
2019-03-30T10:37:38.494Z,24.53
2019-03-30T10:42:43.311Z,11.93
2019-03-30T10:47:48.200Z,15.07
2019-03-30T10:52:54.762Z,40.60
2019-03-30T10:57:59.628Z,16.97
2019-03-30T11:03:04.437Z,15.03
2019-03-30T11:08:09.447Z,28.00
2019-03-30T11:13:14.333Z,18.80
2019-03-30T11:18:22.172Z,14.23
2019-03-30T11:23:27.200Z,18.07
2019-03-30T11:28:33.378Z,17.40
2019-03-30T11:33:38.250Z,23.47
2019-03-30T11:38:42.963Z,23.23
2019-03-30T11:43:51.116Z,24.43
2019-03-30T11:48:57.580Z,20.40
2019-03-30T11:54:02.632Z,27.23
2019-03-30T11:59:08.088Z,29.33
2019-03-30T12:04:12.829Z,49.80
2019-03-30T12:09:17.671Z,27.20
2019-03-30T12:14:22.514Z,24.00
2019-03-30T12:19:28.992Z,25.83
2019-03-30T12:24:34.193Z,31.83
2019-03-30T12:29:39.997Z,31.57
2019-03-30T12:34:46.850Z,34.00
2019-03-30T12:39:52.014Z,35.40
2019-03-30T12:44:57.262Z,38.93
2019-03-30T12:50:02.183Z,38.57
2019-03-30T12:55:08.567Z,34.43
2019-03-30T13:00:13.305Z,39.40
2019-03-30T13:05:18.049Z,30.77
2019-03-30T13:10:22.829Z,40.47
2019-03-30T13:15:27.741Z,39.53
2019-03-30T13:20:32.487Z,31.80
2019-03-30T13:25:38.057Z,34.50
2019-03-30T13:30:43.283Z,30.23
2019-03-30T13:35:47.877Z,30.33
2019-03-30T13:40:53.708Z,34.20
2019-03-30T13:45:58.714Z,32.60
2019-03-30T13:51:03.403Z,28.60
2019-03-30T13:56:17.129Z,28.27
2019-03-30T14:01:15.449Z,31.93
2019-03-30T14:06:20.190Z,27.83
2019-03-30T14:11:25.544Z,32.37
2019-03-30T14:16:31.215Z,26.77
2019-03-30T14:21:36.061Z,29.87
2019-03-30T14:26:41.697Z,28.13
2019-03-30T14:31:46.570Z,24.73
2019-03-30T14:36:51.414Z,25.80
2019-03-30T14:41:57.082Z,38.93
2019-03-30T14:47:01.750Z,26.93
2019-03-30T14:52:06.439Z,28.87
2019-03-30T14:57:11.209Z,29.10
2019-03-30T15:02:15.957Z,42.63
2019-03-30T15:07:20.535Z,28.60
2019-03-30T15:12:25.344Z,26.40
2019-03-30T15:17:30.078Z,26.53
2019-03-30T15:22:35.027Z,25.27
2019-03-30T15:27:39.884Z,26.40
2019-03-30T15:32:48.715Z,23.63
2019-03-30T15:37:54.374Z,22.77
2019-03-30T15:42:59.653Z,19.37
2019-03-30T15:48:06.631Z,16.90
2019-03-30T15:53:15.336Z,31.83
2019-03-30T15:58:22.735Z,32.97
2019-03-30T16:03:30.778Z,38.83
2019-03-30T16:08:40.967Z,34.60
2019-03-30T16:13:50.050Z,29.37
2019-03-30T16:19:00.831Z,30.17
2019-03-30T16:24:08.511Z,30.53
2019-03-30T16:29:13.352Z,23.57
2019-03-30T16:34:17.967Z,25.90
2019-03-30T16:39:23.964Z,79.73
2019-03-30T16:44:28.809Z,30.37
2019-03-30T16:49:34.650Z,23.90
2019-03-30T16:54:39.427Z,28.43
2019-03-30T16:59:44.850Z,45.77
2019-03-30T17:04:49.837Z,24.57
2019-03-30T17:09:54.575Z,32.70
2019-03-30T17:14:59.315Z,41.30
2019-03-30T17:20:06.668Z,35.23
2019-03-30T17:25:12.087Z,43.13
2019-03-30T17:30:16.833Z,38.07
2019-03-30T17:35:21.573Z,142.20
2019-03-30T17:40:26.312Z,153.77
2019-03-30T17:45:31.984Z,64.63
2019-03-30T17:50:36.824Z,45.30
2019-03-30T17:55:41.415Z,39.97
2019-03-30T18:00:46.726Z,41.00
2019-03-30T18:05:51.365Z,62.07
2019-03-30T18:10:56.113Z,72.43
2019-03-30T18:16:00.745Z,57.43
2019-03-30T18:21:05.489Z,49.10
2019-03-30T18:26:14.969Z,36.20
2019-03-30T18:31:21.165Z,35.20
2019-03-30T18:36:27.665Z,38.37
2019-03-30T18:41:36.245Z,41.87
2019-03-30T18:46:46.248Z,40.07
2019-03-30T18:51:51.557Z,42.57
2019-03-30T18:57:01.275Z,38.33
2019-03-30T19:02:18.995Z,43.10
2019-03-30T19:07:29.159Z,40.63
2019-03-30T19:12:35.212Z,46.40
2019-03-30T19:17:40.159Z,43.13
2019-03-30T19:22:45.010Z,50.03
2019-03-30T19:27:49.689Z,50.63
2019-03-30T19:32:55.329Z,49.73
2019-03-30T19:38:02.904Z,49.57
2019-03-30T19:43:07.877Z,56.33
2019-03-30T19:48:12.616Z,64.23
2019-03-30T19:53:17.458Z,77.27
2019-03-30T19:58:22.141Z,72.73
2019-03-30T20:03:26.928Z,74.83
2019-03-30T20:08:31.890Z,78.73
2019-03-30T20:13:36.636Z,91.87
2019-03-30T20:18:41.480Z,82.47
2019-03-30T20:23:46.222Z,73.03
2019-03-30T20:28:51.270Z,50.13
2019-03-30T20:33:56.735Z,63.27
2019-03-30T20:39:02.579Z,52.97
2019-03-30T20:44:10.132Z,57.27
2019-03-30T20:49:14.966Z,52.93
2019-03-30T20:54:20.801Z,48.90
2019-03-30T20:59:39.033Z,38.37
2019-03-30T21:04:31.956Z,45.47
2019-03-30T21:09:36.793Z,75.70
2019-03-30T21:14:41.546Z,69.27
2019-03-30T21:19:46.446Z,54.50
2019-03-30T21:24:52.356Z,45.63
2019-03-30T21:29:56.986Z,47.53
2019-03-30T21:35:01.747Z,45.37
2019-03-30T21:40:07.704Z,46.00
2019-03-30T21:45:12.343Z,39.73
2019-03-30T21:50:16.979Z,52.33
2019-03-30T21:55:21.531Z,40.93
2019-03-30T22:00:37.536Z,37.27
2019-03-30T22:05:42.184Z,38.53
2019-03-30T22:10:46.917Z,49.00
2019-03-30T22:15:51.657Z,41.63
2019-03-30T22:20:56.398Z,38.47
2019-03-30T22:26:01.143Z,42.30
2019-03-30T22:31:05.730Z,40.77
2019-03-30T22:36:10.311Z,33.13
2019-03-30T22:41:14.999Z,34.70
2019-03-30T22:46:20.737Z,37.53
2019-03-30T22:51:26.098Z,31.27
2019-03-30T22:56:31.248Z,39.27
2019-03-30T23:01:36.594Z,33.47
2019-03-30T23:06:41.231Z,34.43
2019-03-30T23:11:45.982Z,34.57
2019-03-30T23:16:50.722Z,38.37
2019-03-30T23:21:55.476Z,34.80
2019-03-30T23:27:00.205Z,34.13
2019-03-30T23:32:04.956Z,37.80
2019-03-30T23:37:09.691Z,38.17
2019-03-30T23:42:14.539Z,37.23
2019-03-30T23:47:19.157Z,51.20
2019-03-30T23:52:23.924Z,38.03
2019-03-30T23:57:28.763Z,46.53
